sensor_id;sensor_type;location;lat;lon;timestamp;P1;durP1;ratioP1;P2;durP2;ratioP2
2802;SDS011;1409;51.154;6.938;2024-01-15T00:00:10;20.47;;;11.67;;
2802;SDS011;1409;51.154;6.938;2024-01-15T00:02:45;18.37;;;10.53;;
2802;SDS011;1409;51.154;6.938;2024-01-15T00:05:13;19.80;;;11.37;;
2802;SDS011;1409;51.154;6.938;2024-01-15T00:07:42;19.73;;;12.23;;
2802;SDS011;1409;51.154;6.938;2024-01-15T00:10:12;19.97;;;12.23;;
2802;SDS011;1409;51.154;6.938;2024-01-15T00:12:41;20.43;;;11.87;;
2802;SDS011;1409;51.154;6.938;2024-01-15T00:15:09;17.77;;;11.40;;
2802;SDS011;1409;51.154;6.938;2024-01-15T00:17:38;18.87;;;11.40;;
2802;SDS011;1409;51.154;6.938;2024-01-15T00:20:07;14.73;;;8.87;;
2802;SDS011;1409;51.154;6.938;2024-01-15T00:22:35;17.60;;;9.90;;
2802;SDS011;1409;51.154;6.938;2024-01-15T00:25:04;24.93;;;13.10;;
2802;SDS011;1409;51.154;6.938;2024-01-15T00:27:34;20.13;;;12.20;;
2802;SDS011;1409;51.154;6.938;2024-01-15T00:30:04;20.67;;;9.97;;
2802;SDS011;1409;51.154;6.938;2024-01-15T00:32:32;19.57;;;11.70;;
2802;SDS011;1409;51.154;6.938;2024-01-15T00:35:01;26.33;;;11.33;;
2802;SDS011;1409;51.154;6.938;2024-01-15T00:37:30;18.73;;;10.40;;
2802;SDS011;1409;51.154;6.938;2024-01-15T00:39:58;20.20;;;10.57;;
2802;SDS011;1409;51.154;6.938;2024-01-15T00:42:27;20.73;;;11.17;;
2802;SDS011;1409;51.154;6.938;2024-01-15T00:44:57;23.23;;;12.03;;
2802;SDS011;1409;51.154;6.938;2024-01-15T00:47:26;20.30;;;10.63;;
2802;SDS011;1409;51.154;6.938;2024-01-15T00:49:54;16.37;;;10.07;;
2802;SDS011;1409;51.154;6.938;2024-01-15T00:52:23;15.73;;;9.83;;
2802;SDS011;1409;51.154;6.938;2024-01-15T00:54:52;16.23;;;10.27;;
2802;SDS011;1409;51.154;6.938;2024-01-15T00:57:20;20.93;;;10.70;;
2802;SDS011;1409;51.154;6.938;2024-01-15T00:59:49;17.47;;;9.57;;
2802;SDS011;1409;51.154;6.938;2024-01-15T01:02:19;26.37;;;11.90;;
2802;SDS011;1409;51.154;6.938;2024-01-15T01:04:48;19.83;;;11.30;;
2802;SDS011;1409;51.154;6.938;2024-01-15T01:07:16;24.30;;;11.20;;
2802;SDS011;1409;51.154;6.938;2024-01-15T01:09:45;24.83;;;12.57;;
2802;SDS011;1409;51.154;6.938;2024-01-15T01:12:14;21.10;;;10.97;;
2802;SDS011;1409;51.154;6.938;2024-01-15T01:14:43;18.13;;;10.43;;
2802;SDS011;1409;51.154;6.938;2024-01-15T01:17:12;21.00;;;11.77;;
2802;SDS011;1409;51.154;6.938;2024-01-15T01:19:42;20.83;;;11.83;;
2802;SDS011;1409;51.154;6.938;2024-01-15T01:22:11;20.57;;;10.33;;
2802;SDS011;1409;51.154;6.938;2024-01-15T01:24:39;17.33;;;10.63;;
2802;SDS011;1409;51.154;6.938;2024-01-15T01:27:08;21.93;;;11.87;;
2802;SDS011;1409;51.154;6.938;2024-01-15T01:29:37;22.97;;;12.10;;
2802;SDS011;1409;51.154;6.938;2024-01-15T01:32:05;19.80;;;10.73;;
2802;SDS011;1409;51.154;6.938;2024-01-15T01:34:39;19.63;;;10.57;;
2802;SDS011;1409;51.154;6.938;2024-01-15T01:37:10;17.83;;;9.67;;
2802;SDS011;1409;51.154;6.938;2024-01-15T01:39:40;18.77;;;9.23;;
2802;SDS011;1409;51.154;6.938;2024-01-15T01:42:09;19.40;;;10.87;;
2802;SDS011;1409;51.154;6.938;2024-01-15T01:44:38;18.80;;;10.77;;
2802;SDS011;1409;51.154;6.938;2024-01-15T01:47:06;17.67;;;10.40;;
2802;SDS011;1409;51.154;6.938;2024-01-15T01:49:35;22.10;;;11.40;;
2802;SDS011;1409;51.154;6.938;2024-01-15T01:52:05;19.37;;;10.97;;
2802;SDS011;1409;51.154;6.938;2024-01-15T01:54:35;21.17;;;11.50;;
2802;SDS011;1409;51.154;6.938;2024-01-15T01:57:05;21.20;;;11.17;;
2802;SDS011;1409;51.154;6.938;2024-01-15T01:59:34;19.90;;;11.47;;
2802;SDS011;1409;51.154;6.938;2024-01-15T02:02:03;18.40;;;10.57;;
2802;SDS011;1409;51.154;6.938;2024-01-15T02:04:32;16.83;;;9.27;;
2802;SDS011;1409;51.154;6.938;2024-01-15T02:07:03;22.27;;;10.97;;
2802;SDS011;1409;51.154;6.938;2024-01-15T02:09:32;24.87;;;12.57;;
2802;SDS011;1409;51.154;6.938;2024-01-15T02:12:02;16.30;;;9.00;;
2802;SDS011;1409;51.154;6.938;2024-01-15T02:14:31;23.07;;;11.20;;
2802;SDS011;1409;51.154;6.938;2024-01-15T02:16:59;17.93;;;11.17;;
2802;SDS011;1409;51.154;6.938;2024-01-15T02:19:28;18.67;;;11.10;;
2802;SDS011;1409;51.154;6.938;2024-01-15T02:21:57;24.37;;;10.97;;
2802;SDS011;1409;51.154;6.938;2024-01-15T02:24:27;17.70;;;10.20;;
2802;SDS011;1409;51.154;6.938;2024-01-15T02:26:55;18.17;;;10.73;;
2802;SDS011;1409;51.154;6.938;2024-01-15T02:29:24;24.13;;;10.57;;
2802;SDS011;1409;51.154;6.938;2024-01-15T02:31:52;12.47;;;7.90;;
2802;SDS011;1409;51.154;6.938;2024-01-15T02:34:21;18.63;;;10.87;;
2802;SDS011;1409;51.154;6.938;2024-01-15T02:36:50;16.30;;;8.63;;
2802;SDS011;1409;51.154;6.938;2024-01-15T02:39:19;20.57;;;11.13;;
2802;SDS011;1409;51.154;6.938;2024-01-15T02:41:49;16.13;;;9.83;;
2802;SDS011;1409;51.154;6.938;2024-01-15T02:44:17;16.33;;;9.13;;
2802;SDS011;1409;51.154;6.938;2024-01-15T02:46:46;16.50;;;9.97;;
2802;SDS011;1409;51.154;6.938;2024-01-15T02:49:14;16.67;;;10.30;;
2802;SDS011;1409;51.154;6.938;2024-01-15T02:51:43;17.60;;;9.87;;
2802;SDS011;1409;51.154;6.938;2024-01-15T02:54:13;15.30;;;8.80;;
2802;SDS011;1409;51.154;6.938;2024-01-15T02:56:42;16.67;;;10.93;;
2802;SDS011;1409;51.154;6.938;2024-01-15T02:59:12;16.87;;;10.80;;
2802;SDS011;1409;51.154;6.938;2024-01-15T03:01:40;16.47;;;10.27;;
2802;SDS011;1409;51.154;6.938;2024-01-15T03:04:09;16.13;;;9.47;;
2802;SDS011;1409;51.154;6.938;2024-01-15T03:06:37;15.77;;;10.00;;
2802;SDS011;1409;51.154;6.938;2024-01-15T03:09:06;15.63;;;8.80;;
2802;SDS011;1409;51.154;6.938;2024-01-15T03:11:36;19.93;;;9.30;;
2802;SDS011;1409;51.154;6.938;2024-01-15T03:14:05;15.13;;;9.30;;
2802;SDS011;1409;51.154;6.938;2024-01-15T03:16:35;17.13;;;8.70;;
2802;SDS011;1409;51.154;6.938;2024-01-15T03:19:04;16.57;;;8.53;;
2802;SDS011;1409;51.154;6.938;2024-01-15T03:21:32;16.50;;;9.53;;
2802;SDS011;1409;51.154;6.938;2024-01-15T03:24:01;11.77;;;7.23;;
2802;SDS011;1409;51.154;6.938;2024-01-15T03:26:30;14.03;;;8.60;;
2802;SDS011;1409;51.154;6.938;2024-01-15T03:28:58;15.10;;;9.77;;
2802;SDS011;1409;51.154;6.938;2024-01-15T03:31:27;15.13;;;9.43;;
2802;SDS011;1409;51.154;6.938;2024-01-15T03:33:57;13.67;;;7.63;;
2802;SDS011;1409;51.154;6.938;2024-01-15T03:36:26;14.83;;;8.23;;
2802;SDS011;1409;51.154;6.938;2024-01-15T03:38:55;15.40;;;8.37;;
2802;SDS011;1409;51.154;6.938;2024-01-15T03:41:23;12.90;;;7.47;;
2802;SDS011;1409;51.154;6.938;2024-01-15T03:43:52;12.73;;;7.67;;
2802;SDS011;1409;51.154;6.938;2024-01-15T03:46:20;14.33;;;8.20;;
2802;SDS011;1409;51.154;6.938;2024-01-15T03:48:49;14.50;;;8.07;;
2802;SDS011;1409;51.154;6.938;2024-01-15T03:51:19;12.67;;;7.30;;
2802;SDS011;1409;51.154;6.938;2024-01-15T03:53:48;12.33;;;7.63;;
2802;SDS011;1409;51.154;6.938;2024-01-15T03:56:17;12.13;;;8.40;;
2802;SDS011;1409;51.154;6.938;2024-01-15T03:58:45;12.53;;;7.20;;
2802;SDS011;1409;51.154;6.938;2024-01-15T04:01:14;11.90;;;8.57;;
2802;SDS011;1409;51.154;6.938;2024-01-15T04:03:42;15.53;;;9.13;;
2802;SDS011;1409;51.154;6.938;2024-01-15T04:06:11;12.20;;;7.77;;
2802;SDS011;1409;51.154;6.938;2024-01-15T04:08:41;10.43;;;7.37;;
2802;SDS011;1409;51.154;6.938;2024-01-15T04:11:10;12.70;;;7.90;;
2802;SDS011;1409;51.154;6.938;2024-01-15T04:13:38;13.77;;;8.83;;
2802;SDS011;1409;51.154;6.938;2024-01-15T04:16:08;17.00;;;8.67;;
2802;SDS011;1409;51.154;6.938;2024-01-15T04:18:37;16.80;;;8.50;;
2802;SDS011;1409;51.154;6.938;2024-01-15T04:21:06;14.33;;;8.80;;
2802;SDS011;1409;51.154;6.938;2024-01-15T04:23:34;15.73;;;8.93;;
2802;SDS011;1409;51.154;6.938;2024-01-15T04:26:04;11.77;;;8.27;;
2802;SDS011;1409;51.154;6.938;2024-01-15T04:28:33;12.23;;;8.57;;
2802;SDS011;1409;51.154;6.938;2024-01-15T04:31:02;9.93;;;7.73;;
2802;SDS011;1409;51.154;6.938;2024-01-15T04:33:30;15.87;;;8.07;;
2802;SDS011;1409;51.154;6.938;2024-01-15T04:36:01;14.90;;;8.27;;
2802;SDS011;1409;51.154;6.938;2024-01-15T04:38:29;11.40;;;7.93;;
2802;SDS011;1409;51.154;6.938;2024-01-15T04:40:59;16.20;;;8.67;;
2802;SDS011;1409;51.154;6.938;2024-01-15T04:43:29;11.30;;;7.07;;
2802;SDS011;1409;51.154;6.938;2024-01-15T04:45:58;11.17;;;6.83;;
2802;SDS011;1409;51.154;6.938;2024-01-15T04:48:27;12.40;;;5.87;;
2802;SDS011;1409;51.154;6.938;2024-01-15T04:50:55;10.10;;;6.53;;
2802;SDS011;1409;51.154;6.938;2024-01-15T04:53:24;11.33;;;6.97;;
2802;SDS011;1409;51.154;6.938;2024-01-15T04:55:52;10.67;;;6.83;;
2802;SDS011;1409;51.154;6.938;2024-01-15T04:58:21;14.40;;;7.43;;
2802;SDS011;1409;51.154;6.938;2024-01-15T05:00:53;10.17;;;7.27;;
2802;SDS011;1409;51.154;6.938;2024-01-15T05:03:22;10.53;;;6.87;;
2802;SDS011;1409;51.154;6.938;2024-01-15T05:05:51;12.30;;;6.87;;
2802;SDS011;1409;51.154;6.938;2024-01-15T05:08:20;11.23;;;6.60;;
2802;SDS011;1409;51.154;6.938;2024-01-15T05:10:48;12.20;;;7.00;;
2802;SDS011;1409;51.154;6.938;2024-01-15T05:13:17;18.17;;;8.40;;
2802;SDS011;1409;51.154;6.938;2024-01-15T05:15:45;14.67;;;6.17;;
2802;SDS011;1409;51.154;6.938;2024-01-15T05:18:16;7.57;;;4.40;;
2802;SDS011;1409;51.154;6.938;2024-01-15T05:20:45;11.17;;;6.53;;
2802;SDS011;1409;51.154;6.938;2024-01-15T05:23:14;9.27;;;5.97;;
2802;SDS011;1409;51.154;6.938;2024-01-15T05:25:42;8.13;;;5.73;;
2802;SDS011;1409;51.154;6.938;2024-01-15T05:28:11;9.53;;;6.77;;
2802;SDS011;1409;51.154;6.938;2024-01-15T05:30:40;7.77;;;5.13;;
2802;SDS011;1409;51.154;6.938;2024-01-15T05:33:08;11.80;;;6.80;;
2802;SDS011;1409;51.154;6.938;2024-01-15T05:35:38;8.93;;;5.00;;
2802;SDS011;1409;51.154;6.938;2024-01-15T05:38:07;10.93;;;5.37;;
2802;SDS011;1409;51.154;6.938;2024-01-15T05:40:35;7.63;;;6.40;;
2802;SDS011;1409;51.154;6.938;2024-01-15T05:43:04;5.77;;;4.50;;
2802;SDS011;1409;51.154;6.938;2024-01-15T05:45:33;9.80;;;5.50;;
2802;SDS011;1409;51.154;6.938;2024-01-15T05:48:02;11.43;;;5.17;;
2802;SDS011;1409;51.154;6.938;2024-01-15T05:50:31;10.50;;;5.63;;
2802;SDS011;1409;51.154;6.938;2024-01-15T05:53:01;10.83;;;5.27;;
2802;SDS011;1409;51.154;6.938;2024-01-15T05:55:30;6.83;;;5.03;;
2802;SDS011;1409;51.154;6.938;2024-01-15T05:57:58;8.00;;;5.63;;
2802;SDS011;1409;51.154;6.938;2024-01-15T06:00:27;9.73;;;5.37;;
2802;SDS011;1409;51.154;6.938;2024-01-15T06:02:56;8.13;;;5.17;;
2802;SDS011;1409;51.154;6.938;2024-01-15T06:05:24;9.27;;;5.33;;
2802;SDS011;1409;51.154;6.938;2024-01-15T06:07:53;9.33;;;5.90;;
2802;SDS011;1409;51.154;6.938;2024-01-15T06:10:23;7.27;;;5.20;;
2802;SDS011;1409;51.154;6.938;2024-01-15T06:12:52;8.70;;;5.30;;
2802;SDS011;1409;51.154;6.938;2024-01-15T06:15:20;7.23;;;4.77;;
2802;SDS011;1409;51.154;6.938;2024-01-15T06:17:49;9.73;;;4.60;;
2802;SDS011;1409;51.154;6.938;2024-01-15T06:20:18;7.00;;;5.23;;
2802;SDS011;1409;51.154;6.938;2024-01-15T06:22:47;9.90;;;5.67;;
2802;SDS011;1409;51.154;6.938;2024-01-15T06:25:16;8.17;;;4.67;;
2802;SDS011;1409;51.154;6.938;2024-01-15T06:27:46;6.77;;;4.20;;
2802;SDS011;1409;51.154;6.938;2024-01-15T06:30:14;8.10;;;5.27;;
2802;SDS011;1409;51.154;6.938;2024-01-15T06:32:43;9.23;;;4.93;;
2802;SDS011;1409;51.154;6.938;2024-01-15T06:35:12;5.57;;;4.03;;
2802;SDS011;1409;51.154;6.938;2024-01-15T06:37:41;8.13;;;5.03;;
2802;SDS011;1409;51.154;6.938;2024-01-15T06:40:09;8.53;;;5.30;;
2802;SDS011;1409;51.154;6.938;2024-01-15T06:42:38;6.67;;;5.13;;
2802;SDS011;1409;51.154;6.938;2024-01-15T06:45:08;8.73;;;5.10;;
2802;SDS011;1409;51.154;6.938;2024-01-15T06:47:37;6.93;;;4.50;;
2802;SDS011;1409;51.154;6.938;2024-01-15T06:50:06;7.33;;;4.60;;
2802;SDS011;1409;51.154;6.938;2024-01-15T06:52:35;8.63;;;5.00;;
2802;SDS011;1409;51.154;6.938;2024-01-15T06:55:04;5.03;;;4.30;;
2802;SDS011;1409;51.154;6.938;2024-01-15T06:57:33;6.53;;;4.00;;
2802;SDS011;1409;51.154;6.938;2024-01-15T07:00:02;5.83;;;3.53;;
2802;SDS011;1409;51.154;6.938;2024-01-15T07:02:36;6.87;;;4.50;;
2802;SDS011;1409;51.154;6.938;2024-01-15T07:05:04;7.40;;;4.77;;
2802;SDS011;1409;51.154;6.938;2024-01-15T07:07:33;7.53;;;4.90;;
2802;SDS011;1409;51.154;6.938;2024-01-15T07:10:02;6.40;;;4.70;;
2802;SDS011;1409;51.154;6.938;2024-01-15T07:12:31;6.30;;;4.53;;
2802;SDS011;1409;51.154;6.938;2024-01-15T07:15:00;8.87;;;5.73;;
2802;SDS011;1409;51.154;6.938;2024-01-15T07:17:30;11.63;;;5.30;;
2802;SDS011;1409;51.154;6.938;2024-01-15T07:20:01;6.93;;;5.20;;
2802;SDS011;1409;51.154;6.938;2024-01-15T07:22:35;8.10;;;4.93;;
2802;SDS011;1409;51.154;6.938;2024-01-15T07:25:04;7.43;;;5.33;;
2802;SDS011;1409;51.154;6.938;2024-01-15T07:27:33;10.93;;;6.03;;
2802;SDS011;1409;51.154;6.938;2024-01-15T07:30:02;10.93;;;5.73;;
2802;SDS011;1409;51.154;6.938;2024-01-15T07:32:33;7.80;;;5.57;;
2802;SDS011;1409;51.154;6.938;2024-01-15T07:35:03;9.47;;;6.20;;
2802;SDS011;1409;51.154;6.938;2024-01-15T07:37:32;8.77;;;6.33;;
2802;SDS011;1409;51.154;6.938;2024-01-15T07:40:01;9.10;;;6.30;;
2802;SDS011;1409;51.154;6.938;2024-01-15T07:42:35;12.97;;;7.03;;
2802;SDS011;1409;51.154;6.938;2024-01-15T07:45:09;11.80;;;7.30;;
2802;SDS011;1409;51.154;6.938;2024-01-15T07:47:39;12.40;;;6.93;;
2802;SDS011;1409;51.154;6.938;2024-01-15T07:50:09;9.50;;;6.27;;
2802;SDS011;1409;51.154;6.938;2024-01-15T07:52:41;12.40;;;7.13;;
2802;SDS011;1409;51.154;6.938;2024-01-15T07:55:11;8.10;;;5.57;;
2802;SDS011;1409;51.154;6.938;2024-01-15T07:57:40;8.50;;;6.43;;
2802;SDS011;1409;51.154;6.938;2024-01-15T08:00:24;12.07;;;7.63;;
2802;SDS011;1409;51.154;6.938;2024-01-15T08:02:56;9.63;;;6.90;;
2802;SDS011;1409;51.154;6.938;2024-01-15T08:05:34;9.93;;;7.30;;
2802;SDS011;1409;51.154;6.938;2024-01-15T08:08:03;10.27;;;6.40;;
2802;SDS011;1409;51.154;6.938;2024-01-15T08:10:35;9.60;;;6.60;;
2802;SDS011;1409;51.154;6.938;2024-01-15T08:13:03;10.70;;;6.73;;
2802;SDS011;1409;51.154;6.938;2024-01-15T08:15:34;12.33;;;6.73;;
2802;SDS011;1409;51.154;6.938;2024-01-15T08:18:03;11.10;;;7.20;;
2802;SDS011;1409;51.154;6.938;2024-01-15T08:20:34;10.23;;;7.53;;
2802;SDS011;1409;51.154;6.938;2024-01-15T08:23:05;12.60;;;7.73;;
2802;SDS011;1409;51.154;6.938;2024-01-15T08:25:34;9.70;;;6.77;;
2802;SDS011;1409;51.154;6.938;2024-01-15T08:28:03;10.53;;;8.30;;
2802;SDS011;1409;51.154;6.938;2024-01-15T08:30:31;13.13;;;7.80;;
2802;SDS011;1409;51.154;6.938;2024-01-15T08:33:00;13.43;;;8.77;;
2802;SDS011;1409;51.154;6.938;2024-01-15T08:35:39;11.33;;;6.83;;
2802;SDS011;1409;51.154;6.938;2024-01-15T08:38:08;14.23;;;7.67;;
2802;SDS011;1409;51.154;6.938;2024-01-15T08:40:36;10.97;;;7.40;;
2802;SDS011;1409;51.154;6.938;2024-01-15T08:43:05;12.93;;;8.43;;
2802;SDS011;1409;51.154;6.938;2024-01-15T08:48:30;12.30;;;7.80;;
2802;SDS011;1409;51.154;6.938;2024-01-15T08:51:00;15.57;;;6.80;;
2802;SDS011;1409;51.154;6.938;2024-01-15T08:53:29;10.87;;;7.57;;
2802;SDS011;1409;51.154;6.938;2024-01-15T08:55:58;10.33;;;7.23;;
2802;SDS011;1409;51.154;6.938;2024-01-15T08:58:26;10.30;;;6.83;;
2802;SDS011;1409;51.154;6.938;2024-01-15T09:00:58;11.60;;;6.90;;
2802;SDS011;1409;51.154;6.938;2024-01-15T09:03:27;9.93;;;6.40;;
2802;SDS011;1409;51.154;6.938;2024-01-15T09:05:56;13.73;;;7.30;;
2802;SDS011;1409;51.154;6.938;2024-01-15T09:08:26;12.57;;;7.63;;
2802;SDS011;1409;51.154;6.938;2024-01-15T09:10:57;10.03;;;6.07;;
2802;SDS011;1409;51.154;6.938;2024-01-15T09:13:29;11.33;;;7.63;;
2802;SDS011;1409;51.154;6.938;2024-01-15T09:15:57;11.23;;;8.33;;
2802;SDS011;1409;51.154;6.938;2024-01-15T09:18:27;12.63;;;7.00;;
2802;SDS011;1409;51.154;6.938;2024-01-15T09:20:56;9.37;;;6.80;;
2802;SDS011;1409;51.154;6.938;2024-01-15T09:23:29;10.53;;;6.73;;
2802;SDS011;1409;51.154;6.938;2024-01-15T09:25:58;12.17;;;7.77;;
2802;SDS011;1409;51.154;6.938;2024-01-15T09:28:26;8.90;;;6.90;;
2802;SDS011;1409;51.154;6.938;2024-01-15T09:30:55;15.50;;;8.20;;
2802;SDS011;1409;51.154;6.938;2024-01-15T09:33:24;12.80;;;7.90;;
2802;SDS011;1409;51.154;6.938;2024-01-15T09:35:53;11.87;;;7.87;;
2802;SDS011;1409;51.154;6.938;2024-01-15T09:38:24;9.43;;;6.20;;
2802;SDS011;1409;51.154;6.938;2024-01-15T09:40:54;13.40;;;8.13;;
2802;SDS011;1409;51.154;6.938;2024-01-15T09:43:23;11.77;;;7.70;;
2802;SDS011;1409;51.154;6.938;2024-01-15T09:45:52;12.50;;;7.70;;
2802;SDS011;1409;51.154;6.938;2024-01-15T09:48:22;10.90;;;8.13;;
2802;SDS011;1409;51.154;6.938;2024-01-15T09:50:54;9.17;;;6.53;;
2802;SDS011;1409;51.154;6.938;2024-01-15T09:53:28;10.33;;;7.67;;
2802;SDS011;1409;51.154;6.938;2024-01-15T09:55:58;10.43;;;7.30;;
2802;SDS011;1409;51.154;6.938;2024-01-15T09:58:28;12.03;;;8.30;;
2802;SDS011;1409;51.154;6.938;2024-01-15T10:00:56;9.67;;;6.20;;
2802;SDS011;1409;51.154;6.938;2024-01-15T10:03:25;10.10;;;6.83;;
2802;SDS011;1409;51.154;6.938;2024-01-15T10:05:54;8.57;;;6.43;;
2802;SDS011;1409;51.154;6.938;2024-01-15T10:08:25;8.77;;;6.80;;
2802;SDS011;1409;51.154;6.938;2024-01-15T10:10:54;7.37;;;5.53;;
2802;SDS011;1409;51.154;6.938;2024-01-15T10:13:24;8.37;;;6.10;;
2802;SDS011;1409;51.154;6.938;2024-01-15T10:15:53;8.83;;;6.03;;
2802;SDS011;1409;51.154;6.938;2024-01-15T10:18:21;9.37;;;6.50;;
2802;SDS011;1409;51.154;6.938;2024-01-15T10:20:50;9.23;;;6.30;;
2802;SDS011;1409;51.154;6.938;2024-01-15T10:23:19;6.50;;;5.53;;
2802;SDS011;1409;51.154;6.938;2024-01-15T10:25:48;7.40;;;5.70;;
2802;SDS011;1409;51.154;6.938;2024-01-15T10:28:20;6.83;;;5.17;;
2802;SDS011;1409;51.154;6.938;2024-01-15T10:30:53;6.93;;;4.97;;
2802;SDS011;1409;51.154;6.938;2024-01-15T10:33:23;6.17;;;5.20;;
2802;SDS011;1409;51.154;6.938;2024-01-15T10:35:54;4.97;;;4.47;;
2802;SDS011;1409;51.154;6.938;2024-01-15T10:38:27;6.43;;;4.90;;
2802;SDS011;1409;51.154;6.938;2024-01-15T10:40:58;6.20;;;4.67;;
2802;SDS011;1409;51.154;6.938;2024-01-15T10:43:29;5.57;;;4.27;;
2802;SDS011;1409;51.154;6.938;2024-01-15T10:45:59;5.37;;;3.57;;
2802;SDS011;1409;51.154;6.938;2024-01-15T10:48:28;4.97;;;3.57;;
2802;SDS011;1409;51.154;6.938;2024-01-15T10:50:57;4.13;;;3.10;;
2802;SDS011;1409;51.154;6.938;2024-01-15T10:53:26;3.83;;;3.07;;
2802;SDS011;1409;51.154;6.938;2024-01-15T10:55:55;4.77;;;3.80;;
2802;SDS011;1409;51.154;6.938;2024-01-15T10:58:28;3.87;;;3.20;;
2802;SDS011;1409;51.154;6.938;2024-01-15T11:01:04;3.87;;;3.07;;
2802;SDS011;1409;51.154;6.938;2024-01-15T11:03:33;3.67;;;3.07;;
2802;SDS011;1409;51.154;6.938;2024-01-15T11:06:15;3.40;;;2.60;;
2802;SDS011;1409;51.154;6.938;2024-01-15T11:08:48;3.33;;;2.67;;
2802;SDS011;1409;51.154;6.938;2024-01-15T11:11:17;2.80;;;2.30;;
2802;SDS011;1409;51.154;6.938;2024-01-15T11:13:49;3.30;;;2.40;;
2802;SDS011;1409;51.154;6.938;2024-01-15T11:16:23;2.80;;;2.13;;
2802;SDS011;1409;51.154;6.938;2024-01-15T11:19:02;3.97;;;2.40;;
2802;SDS011;1409;51.154;6.938;2024-01-15T11:21:33;2.73;;;2.30;;
2802;SDS011;1409;51.154;6.938;2024-01-15T11:24:33;2.17;;;1.70;;
2802;SDS011;1409;51.154;6.938;2024-01-15T11:27:02;4.60;;;2.03;;
2802;SDS011;1409;51.154;6.938;2024-01-15T11:29:35;2.97;;;1.80;;
2802;SDS011;1409;51.154;6.938;2024-01-15T11:32:06;2.50;;;1.83;;
2802;SDS011;1409;51.154;6.938;2024-01-15T11:34:55;2.67;;;1.87;;
2802;SDS011;1409;51.154;6.938;2024-01-15T11:37:27;2.57;;;2.03;;
2802;SDS011;1409;51.154;6.938;2024-01-15T11:39:56;4.27;;;1.67;;
2802;SDS011;1409;51.154;6.938;2024-01-15T11:42:37;3.17;;;2.00;;
2802;SDS011;1409;51.154;6.938;2024-01-15T11:45:06;3.67;;;2.23;;
2802;SDS011;1409;51.154;6.938;2024-01-15T11:50:26;7.83;;;2.53;;
2802;SDS011;1409;51.154;6.938;2024-01-15T11:52:56;3.93;;;2.80;;
2802;SDS011;1409;51.154;6.938;2024-01-15T11:55:33;3.60;;;2.67;;
2802;SDS011;1409;51.154;6.938;2024-01-15T11:58:07;3.60;;;2.90;;
2802;SDS011;1409;51.154;6.938;2024-01-15T12:00:39;4.20;;;3.30;;
2802;SDS011;1409;51.154;6.938;2024-01-15T12:03:12;3.93;;;3.43;;
2802;SDS011;1409;51.154;6.938;2024-01-15T12:05:48;3.80;;;2.63;;
2802;SDS011;1409;51.154;6.938;2024-01-15T12:08:20;3.13;;;2.83;;
2802;SDS011;1409;51.154;6.938;2024-01-15T12:10:49;5.00;;;3.70;;
2802;SDS011;1409;51.154;6.938;2024-01-15T12:13:18;4.17;;;3.20;;
2802;SDS011;1409;51.154;6.938;2024-01-15T12:15:47;4.63;;;3.40;;
2802;SDS011;1409;51.154;6.938;2024-01-15T12:18:17;4.00;;;3.07;;
2802;SDS011;1409;51.154;6.938;2024-01-15T12:20:48;6.17;;;3.50;;
2802;SDS011;1409;51.154;6.938;2024-01-15T12:23:20;5.27;;;3.67;;
2802;SDS011;1409;51.154;6.938;2024-01-15T12:25:55;3.53;;;3.20;;
2802;SDS011;1409;51.154;6.938;2024-01-15T12:28:27;3.80;;;3.00;;
2802;SDS011;1409;51.154;6.938;2024-01-15T12:30:57;3.60;;;3.17;;
2802;SDS011;1409;51.154;6.938;2024-01-15T12:33:33;5.50;;;3.50;;
2802;SDS011;1409;51.154;6.938;2024-01-15T12:36:05;5.90;;;3.00;;
2802;SDS011;1409;51.154;6.938;2024-01-15T12:38:36;4.37;;;3.37;;
2802;SDS011;1409;51.154;6.938;2024-01-15T12:41:06;6.37;;;3.93;;
2802;SDS011;1409;51.154;6.938;2024-01-15T12:43:40;5.03;;;3.93;;
2802;SDS011;1409;51.154;6.938;2024-01-15T12:46:23;6.47;;;4.77;;
2802;SDS011;1409;51.154;6.938;2024-01-15T12:49:00;6.47;;;5.33;;
2802;SDS011;1409;51.154;6.938;2024-01-15T12:51:33;7.80;;;4.83;;
2802;SDS011;1409;51.154;6.938;2024-01-15T12:54:03;7.47;;;5.10;;
2802;SDS011;1409;51.154;6.938;2024-01-15T12:56:32;8.43;;;4.80;;
2802;SDS011;1409;51.154;6.938;2024-01-15T12:59:04;12.33;;;5.53;;
2802;SDS011;1409;51.154;6.938;2024-01-15T13:01:50;8.37;;;5.50;;
2802;SDS011;1409;51.154;6.938;2024-01-15T13:04:24;5.53;;;4.97;;
2802;SDS011;1409;51.154;6.938;2024-01-15T13:07:08;6.80;;;5.07;;
2802;SDS011;1409;51.154;6.938;2024-01-15T13:09:36;6.10;;;4.83;;
2802;SDS011;1409;51.154;6.938;2024-01-15T13:12:07;11.00;;;5.07;;
2802;SDS011;1409;51.154;6.938;2024-01-15T13:14:40;4.00;;;3.50;;
2802;SDS011;1409;51.154;6.938;2024-01-15T13:17:11;6.60;;;4.33;;
2802;SDS011;1409;51.154;6.938;2024-01-15T13:19:43;3.93;;;3.63;;
2802;SDS011;1409;51.154;6.938;2024-01-15T13:22:16;4.93;;;4.33;;
2802;SDS011;1409;51.154;6.938;2024-01-15T13:24:51;5.03;;;4.53;;
2802;SDS011;1409;51.154;6.938;2024-01-15T13:27:23;7.77;;;4.10;;
2802;SDS011;1409;51.154;6.938;2024-01-15T13:29:53;9.63;;;3.80;;
2802;SDS011;1409;51.154;6.938;2024-01-15T13:32:27;5.77;;;4.00;;
2802;SDS011;1409;51.154;6.938;2024-01-15T13:35:00;4.30;;;3.30;;
2802;SDS011;1409;51.154;6.938;2024-01-15T13:37:38;3.57;;;3.27;;
2802;SDS011;1409;51.154;6.938;2024-01-15T13:40:13;5.30;;;3.40;;
2802;SDS011;1409;51.154;6.938;2024-01-15T13:42:49;5.03;;;3.00;;
2802;SDS011;1409;51.154;6.938;2024-01-15T13:45:21;4.37;;;2.90;;
2802;SDS011;1409;51.154;6.938;2024-01-15T13:47:52;5.30;;;2.70;;
2802;SDS011;1409;51.154;6.938;2024-01-15T13:50:21;3.10;;;2.63;;
2802;SDS011;1409;51.154;6.938;2024-01-15T13:52:54;1.57;;;1.47;;
2802;SDS011;1409;51.154;6.938;2024-01-15T13:55:25;2.60;;;2.23;;
2802;SDS011;1409;51.154;6.938;2024-01-15T13:57:59;3.73;;;3.07;;
2802;SDS011;1409;51.154;6.938;2024-01-15T14:00:30;3.13;;;2.83;;
2802;SDS011;1409;51.154;6.938;2024-01-15T14:03:01;3.43;;;2.90;;
2802;SDS011;1409;51.154;6.938;2024-01-15T14:05:34;2.60;;;2.33;;
2802;SDS011;1409;51.154;6.938;2024-01-15T14:08:11;1.83;;;1.70;;
2802;SDS011;1409;51.154;6.938;2024-01-15T14:10:46;5.10;;;1.77;;
2802;SDS011;1409;51.154;6.938;2024-01-15T14:13:14;2.20;;;1.90;;
2802;SDS011;1409;51.154;6.938;2024-01-15T14:15:46;2.83;;;2.40;;
2802;SDS011;1409;51.154;6.938;2024-01-15T14:18:17;5.10;;;2.20;;
2802;SDS011;1409;51.154;6.938;2024-01-15T14:20:50;2.10;;;1.77;;
2802;SDS011;1409;51.154;6.938;2024-01-15T14:23:22;2.50;;;1.90;;
2802;SDS011;1409;51.154;6.938;2024-01-15T14:25:52;2.07;;;1.87;;
2802;SDS011;1409;51.154;6.938;2024-01-15T14:28:27;1.47;;;1.27;;
2802;SDS011;1409;51.154;6.938;2024-01-15T14:30:57;1.70;;;1.60;;
2802;SDS011;1409;51.154;6.938;2024-01-15T14:33:37;2.70;;;1.50;;
2802;SDS011;1409;51.154;6.938;2024-01-15T14:36:09;3.70;;;1.70;;
2802;SDS011;1409;51.154;6.938;2024-01-15T14:38:42;2.17;;;1.50;;
2802;SDS011;1409;51.154;6.938;2024-01-15T14:41:15;2.50;;;1.50;;
2802;SDS011;1409;51.154;6.938;2024-01-15T14:43:49;3.93;;;1.40;;
2802;SDS011;1409;51.154;6.938;2024-01-15T14:46:25;1.83;;;1.27;;
2802;SDS011;1409;51.154;6.938;2024-01-15T14:48:59;2.40;;;1.70;;
2802;SDS011;1409;51.154;6.938;2024-01-15T14:51:55;2.83;;;1.57;;
2802;SDS011;1409;51.154;6.938;2024-01-15T14:54:28;0.90;;;0.90;;
2802;SDS011;1409;51.154;6.938;2024-01-15T14:56:59;1.10;;;1.00;;
2802;SDS011;1409;51.154;6.938;2024-01-15T14:59:27;1.33;;;1.00;;
2802;SDS011;1409;51.154;6.938;2024-01-15T15:01:56;1.20;;;0.97;;
2802;SDS011;1409;51.154;6.938;2024-01-15T15:04:25;1.13;;;1.03;;
2802;SDS011;1409;51.154;6.938;2024-01-15T15:06:55;1.40;;;1.20;;
2802;SDS011;1409;51.154;6.938;2024-01-15T15:09:30;4.03;;;2.17;;
2802;SDS011;1409;51.154;6.938;2024-01-15T15:12:02;1.93;;;1.70;;
2802;SDS011;1409;51.154;6.938;2024-01-15T15:14:39;2.00;;;1.70;;
2802;SDS011;1409;51.154;6.938;2024-01-15T15:17:25;0.97;;;0.90;;
2802;SDS011;1409;51.154;6.938;2024-01-15T15:19:54;1.23;;;1.13;;
2802;SDS011;1409;51.154;6.938;2024-01-15T15:22:23;1.53;;;1.00;;
2802;SDS011;1409;51.154;6.938;2024-01-15T15:24:53;0.90;;;0.90;;
2802;SDS011;1409;51.154;6.938;2024-01-15T15:27:22;3.47;;;1.43;;
2802;SDS011;1409;51.154;6.938;2024-01-15T15:29:59;1.40;;;1.20;;